createdAt,value
2023-02-11T09:47:24.487Z,18.30
2023-02-11T09:49:55.636Z,19.60
2023-02-11T09:52:25.598Z,18.90
2023-02-11T09:54:57.203Z,20.30
2023-02-11T09:59:57.065Z,20.20
2023-02-11T10:02:53.185Z,20.00
2023-02-11T10:05:35.393Z,19.80
2023-02-11T10:08:30.664Z,19.40
2023-02-11T10:11:01.806Z,19.70
2023-02-11T10:13:52.227Z,21.50
2023-02-11T10:16:28.101Z,19.80
2023-02-11T10:19:20.551Z,20.40
2023-02-11T10:21:51.748Z,21.10
2023-02-11T10:24:21.345Z,20.60
2023-02-11T10:26:51.256Z,19.90
2023-02-11T10:29:31.010Z,21.10
2023-02-11T10:31:59.559Z,22.80
2023-02-11T10:34:32.013Z,21.70
2023-02-11T10:36:59.791Z,22.30
2023-02-11T10:39:29.428Z,21.80
2023-02-11T10:42:08.808Z,22.90
2023-02-11T10:44:52.013Z,22.50
2023-02-11T10:47:21.544Z,21.70
2023-02-11T10:49:48.544Z,22.30
2023-02-11T10:52:27.292Z,23.10
2023-02-11T10:55:07.782Z,22.90
2023-02-11T10:57:37.982Z,22.40
2023-02-11T11:00:12.501Z,21.70
2023-02-11T11:02:43.878Z,23.20
2023-02-11T11:05:19.919Z,22.80
2023-02-11T11:07:59.583Z,22.80
2023-02-11T11:10:33.662Z,22.80
2023-02-11T11:13:00.982Z,22.10
2023-02-11T11:15:29.976Z,21.10
2023-02-11T11:18:22.617Z,20.10
2023-02-11T11:21:01.087Z,22.00
2023-02-11T11:23:32.479Z,20.20
2023-02-11T11:28:38.325Z,20.90
2023-02-11T11:31:05.707Z,21.10
2023-02-11T11:33:33.929Z,23.10
2023-02-11T11:36:03.128Z,22.90
2023-02-11T11:38:32.881Z,19.90
2023-02-11T11:41:33.420Z,22.60
2023-02-11T11:44:20.989Z,19.80
2023-02-11T11:46:49.971Z,21.00
2023-02-11T11:49:29.680Z,19.70
2023-02-11T11:52:43.674Z,22.60
2023-02-11T11:55:34.443Z,20.40
2023-02-11T11:58:01.390Z,20.90
2023-02-11T12:01:07.576Z,21.10
2023-02-11T12:03:44.744Z,20.40
2023-02-11T12:06:40.965Z,19.90
2023-02-11T12:09:59.626Z,20.50
2023-02-11T12:12:32.984Z,18.10
2023-02-11T12:15:10.285Z,21.10
2023-02-11T12:18:07.284Z,20.30
2023-02-11T12:21:08.278Z,21.00
2023-02-11T12:24:03.104Z,20.30
2023-02-11T12:26:58.949Z,19.70
2023-02-11T12:29:41.208Z,20.80
2023-02-11T12:32:17.594Z,19.70
2023-02-11T12:35:10.985Z,20.30
2023-02-11T12:37:46.972Z,21.10
2023-02-11T12:40:30.704Z,20.30
2023-02-11T12:43:17.856Z,19.10
2023-02-11T12:45:48.432Z,19.90
2023-02-11T12:48:36.851Z,18.80
2023-02-11T12:51:09.047Z,21.10
2023-02-11T12:53:45.076Z,18.60
2023-02-11T12:56:23.931Z,18.30
2023-02-11T12:58:52.404Z,18.80
2023-02-11T13:01:45.663Z,16.90
2023-02-11T13:04:40.000Z,17.30
2023-02-11T13:07:48.353Z,17.70
2023-02-11T13:10:28.683Z,16.80
2023-02-11T13:13:14.469Z,16.60
2023-02-11T13:15:43.358Z,16.90
2023-02-11T13:18:20.512Z,16.40
2023-02-11T13:21:00.362Z,16.50
2023-02-11T13:23:56.108Z,16.00
2023-02-11T13:27:02.281Z,15.30
2023-02-11T13:29:55.687Z,15.50
2023-02-11T13:32:22.901Z,15.40
2023-02-11T13:34:58.699Z,14.40
2023-02-11T13:37:39.475Z,14.10
2023-02-11T13:40:18.813Z,13.90
2023-02-11T13:42:57.657Z,13.60
2023-02-11T13:45:38.588Z,14.10
2023-02-11T13:48:07.845Z,12.80
2023-02-11T13:50:39.396Z,12.30
2023-02-11T13:53:07.489Z,12.50
2023-02-11T13:55:34.717Z,12.10
2023-02-11T13:58:07.925Z,11.00
2023-02-11T14:00:36.606Z,11.50
2023-02-11T14:03:28.806Z,11.00
2023-02-11T14:06:27.106Z,10.40
2023-02-11T14:09:10.927Z,9.40
2023-02-11T14:11:51.430Z,9.00
2023-02-11T14:14:32.964Z,9.20
2023-02-11T14:17:08.657Z,7.60
2023-02-11T14:19:45.819Z,8.50
2023-02-11T14:22:16.957Z,7.90
2023-02-11T14:24:50.623Z,7.70
2023-02-11T14:27:29.216Z,7.90
2023-02-11T14:30:24.688Z,10.20
2023-02-11T14:33:12.762Z,8.10
